TimeCDT,TemperatureF,Dew PointF,Humidity,Sea Level PressureIn,VisibilityMPH,Wind Direction,Wind SpeedMPH,Gust SpeedMPH,PrecipitationIn,Events,Conditions,WindDirDegrees,DateUTC
12:15 AM,23.0,23.0,100,30.37,10.0,NNW,6.9,-,N/A,,Overcast,340,2013-04-17 05:15:00
12:35 AM,23.0,23.0,100,30.37,10.0,North,4.6,-,N/A,,Overcast,360,2013-04-17 05:35:00
12:55 AM,23.0,23.0,100,30.37,10.0,North,3.5,-,N/A,,Overcast,350,2013-04-17 05:55:00
1:15 AM,23.0,23.0,100,30.38,10.0,Calm,Calm,-,N/A,,Overcast,0,2013-04-17 06:15:00
1:35 AM,23.0,23.0,100,30.37,10.0,Calm,Calm,-,N/A,,Overcast,0,2013-04-17 06:35:00
1:55 AM,23.0,23.0,100,30.35,10.0,North,3.5,-,N/A,,Overcast,360,2013-04-17 06:55:00
2:15 AM,23.0,23.0,100,30.34,10.0,North,4.6,-,N/A,,Overcast,350,2013-04-17 07:15:00
2:35 AM,23.0,23.0,100,30.35,10.0,North,5.8,-,N/A,,Overcast,350,2013-04-17 07:35:00
2:55 AM,23.0,23.0,100,30.35,10.0,Calm,Calm,-,N/A,,Overcast,0,2013-04-17 07:55:00
3:15 AM,23.0,23.0,100,30.36,10.0,NW,3.5,-,N/A,,Overcast,310,2013-04-17 08:15:00
3:35 AM,21.2,21.2,100,30.35,10.0,WNW,3.5,-,N/A,,Overcast,290,2013-04-17 08:35:00
3:55 AM,21.2,21.2,100,30.36,10.0,WNW,4.6,-,N/A,,Overcast,290,2013-04-17 08:55:00
4:35 AM,23.0,23.0,100,30.34,10.0,WNW,3.5,-,N/A,,Overcast,300,2013-04-17 09:35:00
4:55 AM,23.0,23.0,100,30.33,4.0,WNW,5.8,-,0.01,Snow,Light Snow,300,2013-04-17 09:55:00
5:15 AM,19.4,19.4,100,30.34,10.0,WSW,3.5,-,N/A,Snow,Light Snow,250,2013-04-17 10:15:00
5:35 AM,19.4,19.4,100,30.32,10.0,West,3.5,-,N/A,,Overcast,280,2013-04-17 10:35:00
5:55 AM,19.4,19.4,100,30.33,10.0,West,4.6,-,N/A,,Overcast,280,2013-04-17 10:55:00
6:15 AM,14.0,14.0,100,30.33,10.0,WNW,4.6,-,N/A,,Overcast,290,2013-04-17 11:15:00
6:35 AM,17.6,17.6,100,30.32,10.0,WNW,4.6,-,N/A,,Overcast,300,2013-04-17 11:35:00
6:55 AM,15.8,15.8,100,30.31,10.0,NW,3.5,-,N/A,,Overcast,320,2013-04-17 11:55:00
7:15 AM,14.0,14.0,100,30.32,10.0,NNW,5.8,-,N/A,,Mostly Cloudy,330,2013-04-17 12:15:00
7:35 AM,12.2,12.2,100,30.31,10.0,NNW,9.2,-,N/A,,Partly Cloudy,340,2013-04-17 12:35:00
7:55 AM,14.0,14.0,100,30.30,10.0,NNW,8.1,-,N/A,,Partly Cloudy,330,2013-04-17 12:55:00
8:15 AM,15.8,15.8,100,30.30,10.0,NNW,10.4,-,N/A,,Clear,330,2013-04-17 13:15:00
8:35 AM,17.6,17.6,100,30.29,10.0,NNW,10.4,-,N/A,,Clear,340,2013-04-17 13:35:00
8:55 AM,19.4,19.4,100,30.30,10.0,NNW,10.4,-,N/A,,Mostly Cloudy,330,2013-04-17 13:55:00
9:15 AM,21.2,21.2,100,30.30,10.0,NNW,10.4,-,N/A,,Partly Cloudy,330,2013-04-17 14:15:00
9:35 AM,19.4,19.4,100,30.29,10.0,NNW,9.2,-,N/A,,Clear,340,2013-04-17 14:35:00
9:55 AM,21.2,21.2,100,30.28,10.0,NNW,10.4,-,N/A,,Clear,340,2013-04-17 14:55:00
10:15 AM,21.2,21.2,100,30.28,10.0,NNW,10.4,-,N/A,,Clear,340,2013-04-17 15:15:00
10:35 AM,21.2,21.2,100,30.29,10.0,NNW,8.1,-,N/A,,Clear,330,2013-04-17 15:35:00
10:55 AM,21.2,21.2,100,30.30,10.0,North,8.1,-,N/A,,Clear,350,2013-04-17 15:55:00
11:15 AM,23.0,23.0,100,30.31,10.0,North,6.9,-,N/A,,Clear,360,2013-04-17 16:15:00
11:35 AM,23.0,23.0,100,30.31,10.0,North,5.8,-,N/A,,Scattered Clouds,350,2013-04-17 16:35:00
11:55 AM,24.8,23.0,93,30.30,10.0,North,6.9,-,N/A,,Overcast,10,2013-04-17 16:55:00
12:15 PM,24.8,23.0,93,30.30,10.0,North,5.8,-,N/A,,Overcast,360,2013-04-17 17:15:00
12:35 PM,24.8,24.8,100,30.29,10.0,North,6.9,-,N/A,,Overcast,360,2013-04-17 17:35:00
12:55 PM,24.8,23.0,93,30.29,10.0,North,6.9,-,N/A,,Overcast,10,2013-04-17 17:55:00
1:15 PM,24.8,24.8,100,30.28,10.0,North,8.1,-,N/A,,Overcast,360,2013-04-17 18:15:00
1:35 PM,24.8,24.8,100,30.27,10.0,North,9.2,-,N/A,,Scattered Clouds,360,2013-04-17 18:35:00
1:55 PM,26.6,24.8,93,30.26,10.0,North,10.4,-,N/A,,Clear,10,2013-04-17 18:55:00
2:15 PM,26.6,24.8,93,30.25,10.0,North,10.4,-,N/A,,Partly Cloudy,360,2013-04-17 19:15:00
2:35 PM,26.6,24.8,93,30.25,10.0,North,9.2,-,N/A,,Mostly Cloudy,350,2013-04-17 19:35:00
2:55 PM,26.6,24.8,93,30.24,10.0,North,9.2,-,N/A,,Overcast,350,2013-04-17 19:55:00
3:35 PM,26.6,26.6,100,30.23,10.0,NNE,8.1,-,N/A,,Mostly Cloudy,20,2013-04-17 20:35:00
3:55 PM,26.6,26.6,100,30.22,10.0,North,10.4,-,N/A,,Scattered Clouds,360,2013-04-17 20:55:00
4:15 PM,26.6,26.6,100,30.21,10.0,North,13.8,-,N/A,,Partly Cloudy,350,2013-04-17 21:15:00
4:35 PM,26.6,26.6,100,30.22,10.0,North,13.8,-,N/A,,Clear,350,2013-04-17 21:35:00
4:55 PM,26.6,26.6,100,30.21,10.0,North,15.0,-,N/A,,Clear,350,2013-04-17 21:55:00
5:15 PM,26.6,24.8,93,30.21,10.0,NNW,13.8,-,N/A,,Partly Cloudy,340,2013-04-17 22:15:00
5:35 PM,26.6,24.8,93,30.21,10.0,North,11.5,-,N/A,,Scattered Clouds,350,2013-04-17 22:35:00
5:55 PM,26.6,26.6,100,30.21,10.0,NNW,12.7,-,N/A,,Mostly Cloudy,330,2013-04-17 22:55:00
6:15 PM,26.6,24.8,93,30.22,10.0,NNW,12.7,-,N/A,,Overcast,340,2013-04-17 23:15:00
6:35 PM,26.6,24.8,93,30.22,10.0,NNW,12.7,-,N/A,,Overcast,330,2013-04-17 23:35:00
6:55 PM,26.6,24.8,93,30.22,10.0,NNW,11.5,-,N/A,,Overcast,330,2013-04-17 23:55:00
7:15 PM,26.6,24.8,93,30.22,10.0,NW,9.2,-,N/A,,Overcast,320,2013-04-18 00:15:00
7:35 PM,26.6,23.0,86,30.21,10.0,NW,9.2,-,N/A,,Overcast,320,2013-04-18 00:35:00
7:55 PM,26.6,23.0,86,30.21,10.0,NNW,10.4,-,N/A,,Overcast,330,2013-04-18 00:55:00
8:15 PM,26.6,23.0,86,30.21,10.0,NNW,10.4,-,N/A,,Overcast,330,2013-04-18 01:15:00
8:35 PM,26.6,23.0,86,30.21,10.0,NW,8.1,-,N/A,,Mostly Cloudy,310,2013-04-18 01:35:00
8:55 PM,24.8,21.2,86,30.22,10.0,NW,6.9,-,N/A,,Clear,320,2013-04-18 01:55:00
9:15 PM,23.0,19.4,86,30.22,10.0,NW,8.1,-,N/A,,Clear,320,2013-04-18 02:15:00
9:55 PM,23.0,19.4,86,30.22,10.0,NW,9.2,-,N/A,,Clear,310,2013-04-18 02:55:00
10:15 PM,23.0,17.6,80,30.22,10.0,NW,9.2,-,N/A,,Clear,310,2013-04-18 03:15:00
10:35 PM,21.2,17.6,86,30.20,10.0,NW,9.2,-,N/A,,Clear,320,2013-04-18 03:35:00
10:55 PM,21.2,17.6,86,30.19,10.0,NW,10.4,-,N/A,,Clear,320,2013-04-18 03:55:00
11:15 PM,21.2,17.6,86,30.19,10.0,NW,12.7,-,N/A,,Clear,320,2013-04-18 04:15:00
11:35 PM,23.0,17.6,80,30.19,10.0,NW,12.7,-,N/A,,Clear,320,2013-04-18 04:35:00
11:55 PM,23.0,17.6,80,30.19,10.0,NW,13.8,-,N/A,,Clear,320,2013-04-18 04:55:00